createdAt,value
2022-12-04T00:02:31.450Z,100.00
2022-12-04T00:07:35.082Z,100.00
2022-12-04T00:12:38.480Z,100.00
2022-12-04T00:17:43.237Z,100.00
2022-12-04T00:22:46.598Z,100.00
2022-12-04T00:27:49.936Z,100.00
2022-12-04T00:32:55.152Z,100.00
2022-12-04T00:37:58.510Z,100.00
2022-12-04T00:43:01.889Z,100.00
2022-12-04T00:48:06.916Z,100.00
2022-12-04T00:53:10.395Z,100.00
2022-12-04T00:58:14.444Z,100.00
2022-12-04T01:03:19.291Z,100.00
2022-12-04T01:08:22.647Z,100.00
2022-12-04T01:13:27.040Z,100.00
2022-12-04T01:18:31.826Z,100.00
2022-12-04T01:23:35.223Z,100.00
2022-12-04T01:28:38.631Z,100.00
2022-12-04T01:33:44.606Z,100.00
2022-12-04T01:38:48.195Z,100.00
2022-12-04T01:44:08.942Z,100.00
2022-12-04T01:49:16.602Z,100.00
2022-12-04T01:54:28.799Z,100.00
2022-12-04T01:59:36.486Z,100.00
2022-12-04T02:04:42.552Z,100.00
2022-12-04T02:09:53.840Z,100.00
2022-12-04T02:15:08.321Z,100.00
2022-12-04T02:20:26.899Z,100.00
2022-12-04T02:25:39.336Z,100.00
2022-12-04T02:30:45.998Z,100.00
2022-12-04T02:35:53.354Z,100.00
2022-12-04T02:41:00.521Z,100.00
2022-12-04T02:46:12.125Z,100.00
2022-12-04T02:51:19.343Z,100.00
2022-12-04T02:56:28.098Z,100.00
2022-12-04T03:08:48.883Z,100.00
2022-12-04T03:13:56.707Z,100.00
2022-12-04T03:19:04.496Z,100.00
2022-12-04T03:24:16.051Z,100.00
2022-12-04T03:29:22.677Z,100.00
2022-12-04T03:34:32.207Z,100.00
2022-12-04T03:39:41.918Z,100.00
2022-12-04T03:44:48.866Z,100.00
2022-12-04T03:49:58.763Z,100.00
2022-12-04T03:55:09.843Z,100.00
2022-12-04T04:00:16.168Z,100.00
2022-12-04T04:05:21.447Z,100.00
2022-12-04T04:10:28.386Z,100.00
2022-12-04T04:16:04.002Z,100.00
2022-12-04T04:21:25.906Z,100.00
2022-12-04T04:26:36.898Z,100.00
2022-12-04T04:31:44.320Z,100.00
2022-12-04T04:36:56.359Z,100.00
2022-12-04T04:42:05.808Z,100.00
2022-12-04T04:47:17.408Z,100.00
2022-12-04T04:52:23.466Z,100.00
2022-12-04T04:57:29.847Z,100.00
2022-12-04T05:02:34.368Z,100.00
2022-12-04T05:07:37.877Z,100.00
2022-12-04T05:12:42.614Z,100.00
2022-12-04T05:17:45.975Z,100.00
2022-12-04T05:22:49.325Z,100.00
2022-12-04T05:27:54.079Z,100.00
2022-12-04T09:47:17.395Z,100.00
2022-12-04T09:52:32.830Z,100.00
2022-12-04T09:57:39.989Z,100.00
2022-12-04T10:02:50.714Z,100.00
2022-12-04T10:08:05.405Z,100.00
2022-12-04T10:13:24.577Z,100.00
2022-12-04T10:18:42.653Z,100.00
2022-12-04T10:23:56.546Z,100.00
2022-12-04T10:29:04.067Z,100.00
2022-12-04T10:34:16.383Z,100.00
2022-12-04T10:39:25.510Z,100.00
2022-12-04T10:44:28.925Z,100.00
2022-12-04T10:49:36.262Z,100.00
2022-12-04T10:54:47.922Z,100.00
2022-12-04T10:59:53.412Z,100.00
2022-12-04T11:05:00.516Z,100.00
2022-12-04T11:10:07.174Z,100.00
2022-12-04T11:15:15.721Z,98.55
2022-12-04T11:20:23.181Z,98.93
2022-12-04T11:25:29.289Z,96.52
2022-12-04T11:30:36.113Z,94.44
2022-12-04T11:35:41.224Z,93.26
2022-12-04T11:40:48.472Z,92.22
2022-12-04T11:45:56.424Z,91.08
2022-12-04T11:51:13.226Z,89.16
2022-12-04T11:56:23.760Z,87.11
2022-12-04T12:01:39.166Z,89.08
2022-12-04T12:07:03.125Z,88.50
2022-12-04T12:12:13.079Z,88.99
2022-12-04T12:17:24.643Z,90.23
2022-12-04T12:23:04.518Z,90.76
2022-12-04T12:28:18.622Z,89.62
2022-12-04T12:33:26.033Z,88.68
2022-12-04T12:38:36.181Z,88.41
2022-12-04T12:43:40.853Z,89.34
2022-12-04T12:48:56.616Z,90.53
2022-12-04T12:54:16.424Z,91.00
2022-12-04T12:59:23.773Z,90.46
2022-12-04T13:04:36.908Z,92.48
2022-12-04T13:09:47.509Z,93.96
2022-12-04T13:14:51.029Z,94.70
2022-12-04T13:19:57.988Z,94.30
2022-12-04T13:25:19.491Z,95.53
2022-12-04T13:30:28.148Z,97.87
2022-12-04T13:35:55.484Z,98.33
2022-12-04T13:41:05.003Z,98.97
2022-12-04T13:46:09.365Z,99.95
2022-12-04T13:51:37.586Z,100.00
2022-12-04T13:56:44.494Z,100.00
2022-12-04T14:01:50.999Z,100.00
2022-12-04T14:06:57.088Z,100.00
2022-12-04T14:12:04.020Z,100.00
2022-12-04T14:17:19.520Z,100.00
2022-12-04T14:22:28.523Z,100.00
2022-12-04T14:27:43.560Z,100.00
2022-12-04T14:32:49.380Z,100.00
2022-12-04T14:37:57.475Z,100.00
2022-12-04T14:43:02.474Z,100.00
2022-12-04T14:48:29.308Z,100.00
2022-12-04T14:53:40.167Z,100.00
2022-12-04T14:58:47.735Z,100.00
2022-12-04T15:03:54.743Z,100.00
2022-12-04T15:09:20.313Z,100.00
2022-12-04T15:14:26.264Z,100.00
2022-12-04T15:19:29.734Z,100.00
2022-12-04T15:24:33.170Z,100.00
2022-12-04T15:29:48.180Z,100.00
2022-12-04T15:34:54.962Z,100.00
2022-12-04T15:39:59.988Z,100.00
2022-12-04T15:45:25.308Z,100.00
2022-12-04T15:50:31.249Z,100.00
2022-12-04T15:55:39.328Z,100.00
2022-12-04T16:00:44.789Z,100.00
2022-12-04T16:05:48.686Z,100.00
2022-12-04T16:11:00.316Z,100.00
2022-12-04T16:16:08.091Z,100.00
2022-12-04T16:21:16.588Z,100.00
2022-12-04T16:26:21.422Z,100.00
2022-12-04T16:31:27.175Z,100.00
2022-12-04T16:36:31.098Z,100.00
2022-12-04T16:41:34.854Z,100.00
2022-12-04T16:46:39.646Z,100.00
2022-12-04T16:51:46.736Z,100.00
2022-12-04T16:56:50.265Z,100.00
2022-12-04T17:01:55.300Z,100.00
2022-12-04T17:06:58.879Z,100.00
2022-12-04T17:12:02.328Z,100.00
2022-12-04T17:17:07.261Z,100.00
2022-12-04T17:22:10.708Z,100.00
2022-12-04T17:27:14.599Z,100.00
2022-12-04T17:32:19.345Z,100.00
2022-12-04T17:37:22.819Z,100.00
2022-12-04T17:42:26.255Z,100.00
2022-12-04T17:47:30.995Z,100.00
2022-12-04T17:52:34.728Z,100.00
2022-12-04T17:57:38.164Z,100.00
2022-12-04T18:02:43.264Z,100.00
2022-12-04T18:07:48.446Z,100.00
2022-12-04T18:12:51.915Z,100.00
2022-12-04T18:17:56.637Z,100.00
2022-12-04T18:23:00.015Z,100.00
2022-12-04T18:28:03.449Z,100.00
2022-12-04T18:33:08.290Z,100.00
2022-12-04T18:38:12.228Z,100.00
2022-12-04T18:43:15.689Z,100.00
2022-12-04T18:48:20.521Z,100.00
2022-12-04T18:53:25.052Z,100.00
2022-12-04T18:58:28.562Z,100.00
2022-12-04T19:03:33.750Z,100.00
2022-12-04T19:08:41.553Z,100.00
2022-12-04T19:13:46.543Z,100.00
2022-12-04T19:18:51.299Z,100.00
2022-12-04T19:23:59.050Z,100.00
2022-12-04T19:29:03.525Z,100.00
2022-12-04T19:34:08.391Z,100.00
2022-12-04T19:39:11.908Z,100.00
2022-12-04T19:44:47.317Z,100.00
2022-12-04T19:49:40.093Z,100.00
2022-12-04T19:54:43.448Z,100.00
2022-12-04T19:59:47.080Z,100.00
2022-12-04T20:04:51.886Z,100.00
2022-12-04T20:09:56.161Z,100.00
2022-12-04T20:14:59.819Z,100.00
2022-12-04T20:20:04.939Z,100.00
2022-12-04T20:25:09.192Z,100.00
2022-12-04T20:30:12.895Z,100.00
2022-12-04T20:35:17.716Z,100.00
2022-12-04T20:40:21.117Z,100.00
2022-12-04T20:45:24.781Z,100.00
2022-12-04T20:50:29.704Z,100.00
2022-12-04T20:55:33.068Z,100.00
2022-12-04T21:00:36.442Z,100.00
2022-12-04T21:05:41.243Z,100.00
2022-12-04T21:10:45.995Z,100.00
2022-12-04T21:16:05.515Z,100.00
2022-12-04T21:21:10.491Z,100.00
2022-12-04T21:26:14.458Z,100.00
2022-12-04T21:31:17.914Z,100.00
2022-12-04T21:36:22.966Z,100.00
2022-12-04T21:41:46.191Z,100.00
2022-12-04T21:46:50.627Z,100.00
2022-12-04T21:51:58.104Z,100.00
2022-12-04T21:57:05.629Z,100.00
2022-12-04T22:02:12.336Z,100.00
2022-12-04T22:07:17.504Z,100.00
2022-12-04T22:17:45.932Z,100.00
2022-12-04T22:22:50.669Z,100.00
2022-12-04T22:27:54.713Z,100.00
2022-12-04T22:32:58.382Z,100.00
2022-12-04T22:38:03.115Z,100.00
2022-12-04T22:43:06.545Z,100.00
2022-12-04T22:48:09.920Z,100.00
2022-12-04T22:53:14.635Z,100.00
2022-12-04T22:58:18.695Z,100.00
2022-12-04T23:03:22.128Z,100.00
2022-12-04T23:08:26.940Z,100.00
2022-12-04T23:13:30.360Z,100.00
2022-12-04T23:18:33.994Z,100.00
2022-12-04T23:23:40.140Z,100.00
2022-12-04T23:28:44.379Z,100.00
2022-12-04T23:33:48.014Z,100.00
2022-12-04T23:38:53.120Z,100.00
2022-12-04T23:43:56.879Z,100.00
2022-12-04T23:49:01.293Z,100.00
2022-12-04T23:54:06.139Z,100.00
2022-12-04T23:59:09.487Z,100.00
